Sant Celoni, Spain
Current Conditions -  °F | °C
As of 8:30 AM on Saturday 29 Nov 2014 (Local Time) from LELL Reporting Station
Rain Showers Rain Showers  
Wind Chill: 63°   Ceiling: 8000
Heat Index: 63°   Visibility: 4mi
Dew Point: 57°   Wind: 16mph
Humidity: 82%   Direction: 120°ESE
Pressure: 29.47"   Gusts: NA
Location:  41.68°N, 2.48°E
Report Text: LELL 290730Z 12014KT 080V150 7000 -RA VCSH FEW008 SCT010FEW018TCU BKN080 17/14 Q0998
Loading
Personal Weather Stations






























Interactive Weather Map New forecast layout! Learn more

10-Day Weather Forecast

Advertisements
Track Severe Weather on mobile